Time;durP1;ratioP1;P1;durP2;ratioP2;P2;SDS_P1;SDS_P2;PMS_P1;PMS_P2;Temp;Humidity;BMP_temperature;BMP_pressure;BME280_temperature;BME280_humidity;BME280_pressure;Samples;Min_cycle;Max_cycle;Signal;HPM_P1;HPM_P2
2021/12/01 00:01:40;;;;;;;;;3.00;2.60;;;;;8.73;49.58;97085.72;6139260;28;96972;-65
2021/12/01 00:04:45;;;;;;;;;6.00;5.00;;;;;8.68;49.87;97076.53;6137582;28;96668;-66
2021/12/01 00:07:49;;;;;;;;;4.00;3.00;;;;;8.80;49.94;97083.63;6139855;28;96739;-65
2021/12/01 00:10:52;;;;;;;;;4.60;4.60;;;;;8.72;50.08;97102.88;6139544;28;96636;-66
2021/12/01 00:13:55;;;;;;;;;5.00;5.00;;;;;8.78;49.80;97093.81;6139908;28;97320;-66
2021/12/01 00:16:59;;;;;;;;;5.80;5.80;;;;;8.73;49.39;97083.84;6136538;28;99467;-66
2021/12/01 00:20:05;;;;;;;;;4.25;4.25;;;;;8.71;49.68;97107.44;6130609;28;97252;-66
2021/12/01 00:23:09;;;;;;;;;6.00;5.00;;;;;8.60;49.57;97101.16;6137615;28;98344;-66
2021/12/01 00:26:12;;;;;;;;;4.00;3.60;;;;;8.54;49.84;97112.94;6138137;28;98602;-65
2021/12/01 00:29:15;;;;;;;;;4.00;4.00;;;;;8.56;49.79;97108.09;6143221;28;96525;-66
2021/12/01 00:32:19;;;;;;;;;5.00;4.00;;;;;8.64;49.79;97123.78;6139495;28;98864;-66
2021/12/01 00:35:24;;;;;;;;;5.00;4.40;;;;;8.71;49.86;97137.00;6137963;28;97707;-66
2021/12/01 00:38:29;;;;;;;;;4.00;4.00;;;;;8.69;50.06;97145.34;6138813;28;97035;-65
2021/12/01 00:41:33;;;;;;;;;6.60;4.40;;;;;8.55;50.74;97138.69;6121555;28;98334;-65
2021/12/01 00:44:37;;;;;;;;;3.00;3.00;;;;;8.70;50.66;97146.94;6138318;28;96441;-66
2021/12/01 00:47:44;;;;;;;;;4.00;3.25;;;;;8.55;51.26;97162.09;6137395;28;97628;-65
2021/12/01 00:50:50;;;;;;;;;3.00;3.00;;;;;8.66;51.50;97170.00;6133302;28;96492;-66
2021/12/01 00:53:53;;;;;;;;;5.00;5.00;;;;;8.59;51.50;97177.44;6134955;28;97694;-66
2021/12/01 00:56:56;;;;;;;;;5.00;5.00;;;;;8.62;51.80;97178.81;6136914;28;97267;-66
2021/12/01 01:00:00;;;;;;;;;4.00;3.40;;;;;8.51;51.95;97191.28;6135851;28;97291;-66
2021/12/01 01:03:03;;;;;;;;;5.40;5.00;;;;;8.51;51.80;97182.41;6138123;28;98377;-66
2021/12/01 01:06:08;;;;;;;;;6.40;4.60;;;;;8.54;51.61;97180.06;6142522;28;97488;-66
2021/12/01 01:09:12;;;;;;;;;6.00;6.00;;;;;8.55;51.42;97197.00;6141933;28;96440;-66
2021/12/01 01:19:07;;;;;;;;;4.00;3.00;;;;;8.51;51.43;97220.84;6104413;28;96892;-65
2021/12/01 01:22:12;;;;;;;;;6.00;5.00;;;;;8.43;51.52;97215.91;6140050;28;96950;-65
2021/12/01 01:25:15;;;;;;;;;4.00;4.00;;;;;8.53;51.40;97217.91;6140718;28;97471;-65
2021/12/01 01:28:19;;;;;;;;;5.00;5.00;;;;;8.60;51.05;97213.97;6147272;28;96530;-65
2021/12/01 01:31:23;;;;;;;;;5.00;4.00;;;;;8.81;50.64;97217.72;6141045;28;96429;-65
2021/12/01 01:34:27;;;;;;;;;5.00;5.00;;;;;8.88;49.76;97230.97;6124552;28;99574;-65
2021/12/01 01:37:32;;;;;;;;;5.40;5.00;;;;;8.76;49.48;97227.59;6139636;28;99520;-65
2021/12/01 01:40:37;;;;;;;;;5.00;4.00;;;;;8.79;49.37;97248.59;6140290;28;97843;-65
2021/12/01 01:43:42;;;;;;;;;4.40;4.40;;;;;8.72;49.05;97248.78;6139554;28;97755;-65
2021/12/01 01:46:46;;;;;;;;;5.00;5.00;;;;;8.79;48.83;97256.66;6141186;28;99120;-65
2021/12/01 01:49:54;;;;;;;;;6.00;5.00;;;;;8.82;48.62;97259.66;6122076;28;98553;-65
2021/12/01 01:52:59;;;;;;;;;5.80;5.00;;;;;8.89;48.01;97264.84;6141796;28;98154;-65
2021/12/01 01:56:06;;;;;;;;;4.00;4.00;;;;;8.93;47.88;97266.78;6140028;28;98612;-65
2021/12/01 01:59:10;;;;;;;;;6.00;4.50;;;;;8.73;47.64;97277.28;6140846;28;97362;-65
2021/12/01 02:02:13;;;;;;;;;4.00;4.00;;;;;8.80;48.17;97303.94;6142361;28;97145;-65
2021/12/01 02:05:16;;;;;;;;;3.80;3.20;;;;;8.89;49.28;97305.97;6139596;28;97159;-64
2021/12/01 02:08:29;;;;;;;;;4.00;3.60;;;;;9.11;49.56;97327.47;6140418;28;96494;-64
2021/12/01 02:11:32;;;;;;;;;5.00;4.00;;;;;9.11;50.17;97319.41;6136981;28;99483;-65
2021/12/01 02:14:35;;;;;;;;;5.60;4.00;;;;;9.09;50.21;97330.41;6139440;28;96622;-64
2021/12/01 02:17:39;;;;;;;;;4.50;4.00;;;;;8.93;50.41;97335.84;6139117;28;97008;-64
2021/12/01 02:20:58;;;;;;;;;5.00;5.00;;;;;8.90;50.55;97325.56;6141300;28;97012;-64
2021/12/01 02:24:04;;;;;;;;;3.00;3.00;;;;;8.86;50.24;97337.88;6140495;28;97588;-64
2021/12/01 02:27:07;;;;;;;;;4.50;4.50;;;;;8.81;50.36;97327.06;6146134;28;97461;-64
2021/12/01 02:30:11;;;;;;;;;4.00;3.00;;;;;8.73;50.75;97343.63;6140420;28;99372;-65
2021/12/01 02:33:14;;;;;;;;;4.00;4.00;;;;;8.70;50.90;97353.78;6141166;28;97551;-64
2021/12/01 02:36:20;;;;;;;;;4.00;4.00;;;;;8.67;51.25;97358.84;6141753;28;97588;-65
2021/12/01 02:39:23;;;;;;;;;4.00;4.00;;;;;8.78;51.15;97366.00;6137002;28;98493;-65
2021/12/01 02:42:27;;;;;;;;;3.60;2.60;;;;;8.82;50.72;97369.00;6137267;28;96601;-65
2021/12/01 02:45:30;;;;;;;;;4.00;3.60;;;;;8.85;50.79;97384.63;6165380;28;96979;-65
2021/12/01 02:48:41;;;;;;;;;4.60;4.00;;;;;8.74;50.54;97375.63;6163476;28;97383;-65
2021/12/01 02:51:48;;;;;;;;;4.00;3.00;;;;;8.86;50.52;97391.63;6164574;28;97404;-65
2021/12/01 02:54:52;;;;;;;;;4.60;4.00;;;;;8.79;50.38;97401.75;6164414;28;96392;-65
2021/12/01 02:57:55;;;;;;;;;2.00;2.00;;;;;8.73;50.44;97400.03;6164895;28;97105;-64
2021/12/01 03:01:02;;;;;;;;;3.00;2.60;;;;;8.71;50.34;97405.66;6172569;28;97949;-65
2021/12/01 03:04:05;;;;;;;;;3.00;3.00;;;;;8.78;49.91;97410.88;6164529;28;97086;-66
2021/12/01 03:07:13;;;;;;;;;3.00;2.40;;;;;8.78;50.19;97426.97;6147145;28;97923;-66
2021/12/01 03:10:16;;;;;;;;;4.00;3.00;;;;;8.76;50.32;97435.28;6157634;28;96912;-65
2021/12/01 03:13:21;;;;;;;;;4.40;3.40;;;;;8.72;50.87;97446.75;6141916;28;97365;-65
2021/12/01 03:16:25;;;;;;;;;3.00;2.00;;;;;8.70;51.07;97452.38;6153274;28;96579;-65
2021/12/01 03:19:28;;;;;;;;;2.40;2.00;;;;;8.81;50.91;97456.03;6144790;28;96740;-65
2021/12/01 03:22:33;;;;;;;;;2.00;1.00;;;;;8.80;50.82;97462.47;6161947;28;97188;-66
2021/12/01 03:25:36;;;;;;;;;2.40;2.00;;;;;8.66;51.06;97472.72;6128115;28;98627;-65
2021/12/01 03:28:40;;;;;;;;;3.00;2.00;;;;;8.56;51.33;97454.56;6143872;28;96943;-65
2021/12/01 03:31:43;;;;;;;;;2.80;1.20;;;;;8.54;51.12;97466.63;6163216;28;96531;-65
2021/12/01 03:34:47;;;;;;;;;2.00;2.00;;;;;8.47;51.04;97474.00;6146138;28;100071;-66
2021/12/01 03:37:52;;;;;;;;;3.00;2.00;;;;;8.57;50.61;97482.25;6164464;28;96916;-65
2021/12/01 03:40:57;;;;;;;;;2.40;2.00;;;;;8.63;50.13;97483.97;6162361;28;97305;-66
2021/12/01 03:44:00;;;;;;;;;3.00;3.00;;;;;8.70;49.82;97490.81;6162972;28;97341;-65
2021/12/01 03:47:04;;;;;;;;;3.00;3.00;;;;;8.78;48.75;97491.47;6138224;28;97077;-65
2021/12/01 03:50:08;;;;;;;;;4.00;3.50;;;;;8.90;48.62;97497.56;6163139;28;97532;-66
2021/12/01 03:53:13;;;;;;;;;5.50;5.00;;;;;8.92;48.70;97498.97;6145014;28;96739;-66
2021/12/01 03:56:19;;;;;;;;;3.00;2.50;;;;;8.93;48.25;97503.28;6164200;28;97285;-66
2021/12/01 03:59:22;;;;;;;;;2.00;2.00;;;;;9.04;48.00;97502.34;6163360;28;97477;-66
2021/12/01 04:02:27;;;;;;;;;3.00;3.00;;;;;9.02;47.95;97519.81;6164065;28;96621;-66
2021/12/01 04:05:31;;;;;;;;;2.60;2.00;;;;;8.89;47.69;97520.97;6163083;28;96385;-65
2021/12/01 04:08:35;;;;;;;;;2.25;2.25;;;;;8.93;47.76;97523.97;6163508;28;97013;-66
2021/12/01 04:11:39;;;;;;;;;3.75;3.75;;;;;8.83;47.70;97534.53;6162436;28;97649;-66
2021/12/01 04:14:43;;;;;;;;;2.80;2.00;;;;;8.81;47.47;97537.47;6145520;28;97044;-66
2021/12/01 04:17:46;;;;;;;;;3.00;2.00;;;;;8.85;47.64;97529.72;6162816;28;96559;-66
2021/12/01 04:20:50;;;;;;;;;3.00;3.00;;;;;8.91;47.65;97543.00;6145143;28;98407;-66
2021/12/01 04:23:55;;;;;;;;;2.00;2.00;;;;;8.89;47.78;97544.34;6145699;28;96743;-66
2021/12/01 04:26:58;;;;;;;;;3.00;3.00;;;;;8.92;47.92;97543.84;6163641;28;97154;-66
2021/12/01 04:30:02;;;;;;;;;5.00;3.80;;;;;8.86;48.07;97556.38;6170920;28;96724;-66
2021/12/01 04:33:05;;;;;;;;;4.00;4.00;;;;;8.75;48.33;97554.56;6162805;28;96366;-66
2021/12/01 04:36:09;;;;;;;;;3.00;3.00;;;;;8.73;48.72;97553.19;6161913;28;97431;-66
2021/12/01 04:39:15;;;;;;;;;4.80;3.80;;;;;8.72;48.46;97560.41;6159791;28;96624;-66
2021/12/01 04:42:19;;;;;;;;;4.00;4.00;;;;;8.80;48.28;97575.31;6155780;28;97416;-66
2021/12/01 04:45:25;;;;;;;;;2.60;2.60;;;;;8.81;48.63;97579.66;6172767;28;97508;-66
2021/12/01 04:48:29;;;;;;;;;3.00;3.00;;;;;8.70;48.74;97576.78;6150083;28;96694;-65
2021/12/01 04:51:32;;;;;;;;;4.00;3.00;;;;;8.70;48.42;97575.97;6162647;28;96590;-66
2021/12/01 04:54:37;;;;;;;;;3.00;3.00;;;;;8.69;48.58;97582.41;6161192;28;97055;-66
2021/12/01 04:57:42;;;;;;;;;4.25;4.00;;;;;8.73;48.32;97588.09;6127186;28;98313;-65
2021/12/01 05:00:46;;;;;;;;;5.25;4.25;;;;;8.78;48.08;97590.88;6144829;28;97732;-65
2021/12/01 05:03:49;;;;;;;;;4.75;4.00;;;;;8.68;48.10;97596.91;6142528;28;97463;-66
2021/12/01 05:06:52;;;;;;;;;4.00;4.00;;;;;8.84;48.17;97600.69;6162143;28;97452;-66
2021/12/01 05:09:57;;;;;;;;;5.00;4.00;;;;;8.89;47.50;97598.09;6156700;28;96969;-66
2021/12/01 05:13:00;;;;;;;;;4.00;4.00;;;;;8.85;47.82;97604.97;6142038;28;97015;-66
2021/12/01 05:16:04;;;;;;;;;4.00;3.00;;;;;8.93;47.71;97618.03;6163779;28;96388;-65
2021/12/01 05:19:08;;;;;;;;;5.00;5.00;;;;;8.88;47.60;97615.25;6137132;28;97424;-66
2021/12/01 05:22:12;;;;;;;;;3.80;3.00;;;;;8.94;47.65;97617.78;6162143;28;97697;-65
2021/12/01 05:25:16;;;;;;;;;3.00;3.00;;;;;8.77;47.71;97627.69;6138528;28;96804;-66
2021/12/01 05:28:20;;;;;;;;;4.00;4.00;;;;;8.91;47.72;97620.13;6159977;28;97724;-65
2021/12/01 05:31:23;;;;;;;;;4.00;4.00;;;;;9.02;47.65;97617.41;6143486;28;98227;-66
2021/12/01 05:34:27;;;;;;;;;4.00;4.00;;;;;9.01;47.17;97607.69;6160312;28;97415;-66
2021/12/01 05:37:30;;;;;;;;;3.60;3.20;;;;;9.08;47.10;97603.00;6159018;28;97199;-66
2021/12/01 05:40:35;;;;;;;;;3.00;3.00;;;;;8.99;47.16;97606.31;6153131;28;97447;-65
2021/12/01 05:43:39;;;;;;;;;3.00;2.00;;;;;9.01;47.00;97609.56;6160563;28;97556;-65
2021/12/01 05:46:42;;;;;;;;;3.00;3.00;;;;;8.99;47.25;97601.72;6141867;28;97687;-65
2021/12/01 05:49:45;;;;;;;;;4.00;3.25;;;;;9.02;47.13;97603.97;6139399;28;97086;-66
2021/12/01 05:52:49;;;;;;;;;4.00;4.00;;;;;9.10;47.08;97605.41;6168648;28;97440;-64
2021/12/01 05:55:54;;;;;;;;;3.00;3.00;;;;;9.04;47.19;97601.03;6146294;28;99576;-65
2021/12/01 05:58:58;;;;;;;;;4.00;4.00;;;;;8.99;46.64;97577.53;6167217;28;97416;-65
2021/12/01 06:02:01;;;;;;;;;4.80;4.40;;;;;9.01;47.25;97601.50;6168246;28;96370;-65
2021/12/01 06:05:06;;;;;;;;;4.00;4.00;;;;;8.89;47.55;97600.78;6163670;28;99528;-65
2021/12/01 06:08:09;;;;;;;;;5.00;4.00;;;;;8.77;47.58;97575.81;6132175;28;98753;-64
2021/12/01 06:11:14;;;;;;;;;4.00;4.00;;;;;8.87;47.78;97605.56;6143710;28;96700;-65
2021/12/01 06:14:18;;;;;;;;;7.00;7.00;;;;;8.79;47.99;97606.78;6128818;28;96686;-65
2021/12/01 06:17:21;;;;;;;;;5.50;5.50;;;;;8.84;47.91;97614.94;6146206;28;98494;-65
2021/12/01 06:20:25;;;;;;;;;5.60;5.00;;;;;8.93;47.90;97615.34;6160609;28;97925;-65
2021/12/01 06:23:28;;;;;;;;;6.00;5.80;;;;;8.84;48.02;97612.25;6164718;28;97121;-65
2021/12/01 06:26:33;;;;;;;;;6.00;5.40;;;;;8.82;47.96;97614.34;6162889;28;96806;-65
2021/12/01 06:29:36;;;;;;;;;5.00;5.00;;;;;8.87;48.06;97619.81;6154128;28;97676;-64
2021/12/01 06:32:40;;;;;;;;;5.00;5.00;;;;;8.96;47.86;97622.91;6148436;28;98416;-65
2021/12/01 06:35:48;;;;;;;;;5.20;4.20;;;;;9.03;47.65;97615.53;6161477;28;96609;-66
2021/12/01 06:38:51;;;;;;;;;4.00;3.75;;;;;9.09;47.32;97619.91;6151091;28;99454;-64
2021/12/01 06:41:56;;;;;;;;;5.60;5.00;;;;;9.03;47.46;97627.09;6153310;28;98422;-64
2021/12/01 06:44:59;;;;;;;;;4.33;4.00;;;;;9.04;47.34;97635.97;6140861;28;97659;-67
2021/12/01 06:48:03;;;;;;;;;5.00;4.00;;;;;9.00;47.13;97627.56;6145719;28;97840;-65
2021/12/01 06:51:06;;;;;;;;;4.00;4.00;;;;;8.57;47.17;97550.22;6139079;28;99598;-67
2021/12/01 06:54:09;;;;;;;;;7.80;7.00;;;;;9.22;47.12;97638.44;6140018;28;96768;-64
2021/12/01 06:57:14;;;;;;;;;7.00;7.00;;;;;9.29;46.96;97635.56;6164569;28;97750;-65
2021/12/01 07:00:20;;;;;;;;;8.60;8.00;;;;;9.31;46.91;97636.16;6170156;28;97697;-65
2021/12/01 07:03:23;;;;;;;;;8.00;8.00;;;;;9.36;46.91;97629.00;6167686;28;98498;-65
2021/12/01 07:06:27;;;;;;;;;7.00;7.00;;;;;9.40;46.90;97635.50;6140140;28;97251;-65
2021/12/01 07:09:30;;;;;;;;;7.00;7.00;;;;;9.36;46.81;97637.06;6162705;28;97995;-65
2021/12/01 07:12:35;;;;;;;;;8.00;7.25;;;;;9.37;46.69;97633.31;6153398;28;97713;-64
2021/12/01 07:15:38;;;;;;;;;7.00;7.00;;;;;9.38;46.53;97639.50;6164533;28;97271;-65
2021/12/01 07:18:41;;;;;;;;;8.00;5.75;;;;;9.43;46.34;97643.06;6162680;28;97001;-66
2021/12/01 07:21:44;;;;;;;;;7.00;7.00;;;;;9.42;46.16;97632.59;6137297;28;96978;-66
2021/12/01 07:24:48;;;;;;;;;8.00;7.00;;;;;9.37;46.19;97632.50;6146598;28;97948;-67
2021/12/01 07:27:53;;;;;;;;;9.00;9.00;;;;;9.40;46.36;97629.31;6151039;28;99618;-65
2021/12/01 07:30:56;;;;;;;;;5.60;5.60;;;;;9.38;46.34;97620.69;6160076;28;97593;-63
2021/12/01 07:34:05;;;;;;;;;7.40;6.00;;;;;9.35;46.14;97613.91;6159637;28;97654;-66
2021/12/01 07:37:09;;;;;;;;;7.00;6.60;;;;;9.35;46.00;97596.94;6130672;28;97819;-66
2021/12/01 07:40:13;;;;;;;;;8.67;7.00;;;;;9.49;45.81;97596.38;6164217;28;97163;-63
2021/12/01 07:43:18;;;;;;;;;8.60;8.40;;;;;9.57;45.63;97595.97;6164180;28;96769;-65
2021/12/01 07:46:23;;;;;;;;;8.00;7.40;;;;;9.59;45.62;97603.78;6162526;28;97386;-65
2021/12/01 07:49:27;;;;;;;;;10.00;9.40;;;;;9.44;45.17;97558.63;6127289;28;96716;-65
2021/12/01 07:52:36;;;;;;;;;11.00;10.00;;;;;9.63;45.20;97596.06;6160437;28;96755;-66
2021/12/01 07:55:39;;;;;;;;;12.00;10.80;;;;;9.69;45.08;97582.41;6139993;28;96604;-66
2021/12/01 07:58:44;;;;;;;;;11.00;10.00;;;;;9.80;45.04;97575.28;6144526;28;97469;-65
2021/12/01 08:01:47;;;;;;;;;14.50;12.00;;;;;9.89;44.59;97561.16;6142783;28;97812;-65
2021/12/01 08:04:51;;;;;;;;;12.00;11.00;;;;;9.95;44.19;97556.66;6142212;28;98364;-66
2021/12/01 08:07:55;;;;;;;;;11.20;10.60;;;;;10.11;43.82;97563.06;6161814;28;96441;-65
2021/12/01 08:10:59;;;;;;;;;11.50;11.00;;;;;10.52;43.14;97556.25;6134946;28;99970;-66
2021/12/01 08:14:05;;;;;;;;;10.00;10.00;;;;;11.61;41.33;97545.84;6165704;28;96719;-66
2021/12/01 08:17:08;;;;;;;;;10.00;10.00;;;;;12.10;40.15;97558.03;6163035;28;98406;-66
2021/12/01 08:20:12;;;;;;;;;10.40;9.00;;;;;12.97;38.45;97556.38;6157782;28;97334;-65
2021/12/01 08:23:15;;;;;;;;;10.75;9.00;;;;;13.58;36.86;97554.50;6123370;28;98462;-67
2021/12/01 08:26:21;;;;;;;;;12.00;10.00;;;;;14.06;35.39;97544.06;6123064;28;98066;-66
2021/12/01 08:29:25;;;;;;;;;10.75;9.25;;;;;14.47;34.82;97542.00;6141984;28;98131;-66
2021/12/01 08:32:29;;;;;;;;;7.00;6.00;;;;;14.62;33.54;97541.94;6110225;28;100314;-66
2021/12/01 08:35:32;;;;;;;;;6.00;6.00;;;;;15.26;33.42;97549.91;6141035;28;97363;-66
2021/12/01 08:38:35;;;;;;;;;8.00;6.00;;;;;15.92;32.33;97535.72;6137658;28;97194;-66
2021/12/01 08:41:39;;;;;;;;;7.00;5.00;;;;;16.19;31.06;97548.72;6148690;28;96859;-67
2021/12/01 08:44:45;;;;;;;;;6.00;6.00;;;;;16.59;30.79;97547.44;6139718;28;98671;-68
2021/12/01 08:47:49;;;;;;;;;6.00;6.00;;;;;17.62;29.05;97536.31;6145077;28;96960;-67
2021/12/01 08:50:53;;;;;;;;;8.40;8.00;;;;;19.02;27.42;97532.88;6157194;28;97185;-66
2021/12/01 08:53:56;;;;;;;;;5.20;5.20;;;;;20.25;25.39;97532.19;6156629;28;97804;-66
2021/12/01 08:56:59;;;;;;;;;7.00;5.00;;;;;21.03;23.78;97530.41;6157016;28;97625;-67
2021/12/01 09:00:06;;;;;;;;;6.00;5.00;;;;;21.65;23.39;97541.06;6161010;28;97016;-67
2021/12/01 09:03:09;;;;;;;;;5.20;5.20;;;;;22.63;22.97;97541.63;6124577;28;96961;-66
2021/12/01 09:06:12;;;;;;;;;5.00;4.80;;;;;23.16;21.48;97535.47;6142507;28;99111;-66
2021/12/01 09:09:18;;;;;;;;;8.00;6.00;;;;;23.20;21.77;97528.16;6126401;28;98626;-66
2021/12/01 09:12:22;;;;;;;;;5.00;5.00;;;;;22.86;21.27;97511.94;6137242;28;96848;-65
2021/12/01 09:15:28;;;;;;;;;4.20;4.20;;;;;23.02;21.87;97517.66;6143525;28;97048;-66
2021/12/01 09:18:33;;;;;;;;;4.75;3.00;;;;;22.55;21.36;97504.03;6145067;28;97475;-67
2021/12/01 09:21:37;;;;;;;;;4.00;3.60;;;;;21.71;22.69;97499.38;6157510;28;97497;-67
2021/12/01 09:24:40;;;;;;;;;5.00;5.00;;;;;20.83;23.52;97498.19;6141151;28;98871;-68
2021/12/01 09:27:45;;;;;;;;;3.00;3.00;;;;;20.36;23.65;97497.97;6167628;28;96817;-66
2021/12/01 09:30:50;;;;;;;;;5.00;5.00;;;;;20.56;23.93;97491.09;6144815;28;97479;-64
2021/12/01 09:33:54;;;;;;;;;5.40;4.00;;;;;21.34;22.99;97491.91;6126530;28;98844;-65
2021/12/01 09:36:57;;;;;;;;;5.80;4.80;;;;;21.74;22.51;97497.94;6147314;28;96615;-66
2021/12/01 09:40:02;;;;;;;;;6.00;5.00;;;;;22.35;21.78;97480.91;6143270;28;96700;-67
2021/12/01 09:43:06;;;;;;;;;6.20;5.00;;;;;23.09;21.40;97476.66;6150215;28;96771;-66
2021/12/01 09:46:11;;;;;;;;;4.00;4.00;;;;;22.39;21.35;97465.38;6165094;28;96823;-65
2021/12/01 09:49:14;;;;;;;;;4.60;4.00;;;;;21.45;22.19;97463.03;6154327;28;98337;-67
2021/12/01 09:52:19;;;;;;;;;5.00;4.60;;;;;21.57;21.85;97450.22;6142188;28;98582;-66
2021/12/01 09:55:22;;;;;;;;;3.00;3.00;;;;;21.50;21.88;97444.44;6166918;28;97568;-66
2021/12/01 09:58:30;;;;;;;;;4.00;4.00;;;;;21.99;22.04;97447.69;6146841;28;97332;-65
2021/12/01 10:01:35;;;;;;;;;4.00;3.00;;;;;21.78;21.66;97452.25;6165262;28;97650;-68
2021/12/01 10:04:41;;;;;;;;;4.00;4.00;;;;;21.36;21.92;97445.78;6170857;28;98697;-66
2021/12/01 10:07:44;;;;;;;;;4.40;3.40;;;;;20.98;22.30;97438.25;6146113;28;96786;-66
2021/12/01 10:10:49;;;;;;;;;4.00;3.00;;;;;20.13;22.82;97428.03;6147580;28;98064;-65
2021/12/01 10:13:55;;;;;;;;;4.60;4.00;;;;;19.70;23.47;97434.16;6157529;28;96825;-66
2021/12/01 10:16:59;;;;;;;;;4.00;4.00;;;;;19.08;25.06;97443.44;6165797;28;97931;-64
2021/12/01 10:20:14;;;;;;;;;4.00;4.00;;;;;18.23;25.41;97442.38;6163409;28;96775;-66
2021/12/01 10:23:18;;;;;;;;;5.00;4.50;;;;;17.54;26.48;97395.28;6161457;28;96957;-66
2021/12/01 10:26:25;;;;;;;;;4.25;3.25;;;;;17.18;26.38;97427.00;6145954;28;97978;-65
2021/12/01 10:29:31;;;;;;;;;4.00;4.00;;;;;16.54;27.22;97419.59;6164438;28;98066;-67
2021/12/01 10:32:36;;;;;;;;;5.00;4.80;;;;;16.04;27.97;97413.78;6121316;28;98423;-66
2021/12/01 10:35:40;;;;;;;;;4.00;3.00;;;;;15.70;28.69;97396.84;6130785;28;98328;-67
2021/12/01 10:38:45;;;;;;;;;6.00;4.00;;;;;15.23;37.73;97403.88;6164772;28;96977;-65
2021/12/01 10:41:48;;;;;;;;;5.00;4.00;;;;;14.98;31.85;97394.06;6160437;28;97383;-65
2021/12/01 10:44:57;;;;;;;;;5.00;3.50;;;;;14.70;30.65;97379.44;6143953;28;97166;-64
2021/12/01 10:48:05;;;;;;;;;4.00;4.00;;;;;14.65;30.91;97384.88;6165439;28;97431;-65
2021/12/01 10:51:11;;;;;;;;;4.00;4.00;;;;;14.50;31.09;97382.31;6162792;28;97513;-65
2021/12/01 10:54:17;;;;;;;;;4.00;4.00;;;;;14.15;31.07;97371.69;6128225;28;97832;-66
2021/12/01 10:57:23;;;;;;;;;5.00;4.60;;;;;13.91;31.05;97379.69;6158894;28;96845;-63
2021/12/01 11:00:29;;;;;;;;;5.60;5.00;;;;;13.73;31.64;97359.44;6163066;28;96859;-63
2021/12/01 11:03:35;;;;;;;;;6.20;5.00;;;;;13.70;31.71;97346.47;6155250;28;96831;-65
2021/12/01 11:06:41;;;;;;;;;3.00;3.00;;;;;13.67;32.13;97335.41;6158628;28;96737;-65
2021/12/01 11:09:44;;;;;;;;;3.00;3.00;;;;;13.65;32.07;97337.56;6164261;28;97114;-65
2021/12/01 11:12:55;;;;;;;;;4.00;2.40;;;;;13.73;32.14;97328.88;6142549;28;97098;-64
2021/12/01 11:16:00;;;;;;;;;3.00;3.00;;;;;13.73;32.26;97331.59;6142365;28;96848;-66
2021/12/01 11:19:34;;;;;;;;;3.00;2.00;;;;;13.67;33.40;97327.28;6162657;28;97732;-64
2021/12/01 11:22:37;;;;;;;;;4.00;3.00;;;;;13.28;34.40;97332.59;6129808;28;97963;-68
2021/12/01 11:25:42;;;;;;;;;4.00;3.00;;;;;13.33;34.83;97321.75;6161395;28;98204;-66
2021/12/01 11:28:51;;;;;;;;;3.00;3.00;;;;;13.24;35.40;97326.13;6160737;28;96608;-66
2021/12/01 11:31:54;;;;;;;;;3.25;3.00;;;;;13.16;36.39;97313.97;6125699;28;96827;-66
2021/12/01 11:34:59;;;;;;;;;2.00;2.00;;;;;13.01;36.74;97312.09;6159896;28;96745;-67
2021/12/01 11:38:02;;;;;;;;;2.00;2.00;;;;;12.95;37.32;97305.06;6146045;28;98089;-67
2021/12/01 11:41:07;;;;;;;;;2.60;2.00;;;;;12.75;37.48;97307.84;6161429;28;98074;-67
2021/12/01 11:44:12;;;;;;;;;2.80;2.80;;;;;12.58;38.16;97296.50;6119334;28;97285;-67
2021/12/01 11:47:16;;;;;;;;;2.00;2.00;;;;;12.70;38.35;97305.16;6144700;28;99732;-67
2021/12/01 11:50:32;;;;;;;;;2.00;2.00;;;;;12.72;38.67;97296.75;6145421;28;97083;-65
2021/12/01 11:53:37;;;;;;;;;4.00;2.00;;;;;12.71;38.77;97287.81;6156879;28;97270;-65
2021/12/01 11:56:49;;;;;;;;;2.00;2.00;;;;;12.70;38.68;97270.00;6161168;28;97614;-66
2021/12/01 11:59:53;;;;;;;;;3.00;3.00;;;;;12.62;39.19;97258.91;6138084;28;97129;-66
2021/12/01 12:03:16;;;;;;;;;3.00;3.00;;;;;12.61;39.49;97247.28;6150637;28;96854;-66
2021/12/01 12:06:23;;;;;;;;;3.00;2.00;;;;;12.64;40.13;97246.75;6160599;28;97082;-66
2021/12/01 12:09:27;;;;;;;;;3.00;2.00;;;;;12.72;40.23;97240.78;6162889;28;96596;-66
2021/12/01 12:12:56;;;;;;;;;3.00;2.00;;;;;12.68;40.41;97228.91;6151042;28;97520;-66
2021/12/01 12:16:02;;;;;;;;;3.00;3.00;;;;;12.66;40.64;97222.94;6128302;28;97881;-65
2021/12/01 12:19:05;;;;;;;;;3.60;3.00;;;;;12.52;41.08;97208.41;6161514;28;96635;-65
2021/12/01 12:22:10;;;;;;;;;3.25;3.00;;;;;12.54;40.50;97198.94;6150967;28;97494;-66
2021/12/01 12:25:53;;;;;;;;;3.00;2.80;;;;;12.51;40.43;97202.19;6164439;28;96663;-66
2021/12/01 12:29:15;;;;;;;;;3.00;3.00;;;;;12.49;40.91;97208.97;6158203;28;98020;-65
2021/12/01 12:32:23;;;;;;;;;6.40;5.00;;;;;12.44;40.95;97192.75;6153686;28;97139;-65
2021/12/01 12:35:42;;;;;;;;;5.00;4.00;;;;;12.53;40.45;97199.22;6144202;28;97492;-66
2021/12/01 12:39:07;;;;;;;;;3.20;3.20;;;;;12.53;39.60;97197.31;6156231;28;98025;-65
2021/12/01 12:42:12;;;;;;;;;4.20;4.20;;;;;12.45;39.10;97195.19;6153747;28;97428;-66
2021/12/01 12:45:26;;;;;;;;;5.00;4.75;;;;;12.29;39.21;97190.09;6148189;28;99172;-66
2021/12/01 12:48:32;;;;;;;;;5.00;4.25;;;;;12.31;39.47;97172.53;6162197;28;96672;-67
2021/12/01 12:51:38;;;;;;;;;6.00;6.00;;;;;12.30;39.47;97167.41;6158645;28;97483;-65
2021/12/01 12:54:43;;;;;;;;;7.00;5.40;;;;;12.23;39.53;97153.34;6156995;28;97924;-66
2021/12/01 12:57:53;;;;;;;;;8.00;6.00;;;;;12.33;39.44;97153.31;6163702;28;97740;-65
2021/12/01 13:00:57;;;;;;;;;7.00;6.60;;;;;12.37;39.77;97148.97;6153534;28;97435;-66
2021/12/01 13:04:05;;;;;;;;;7.00;6.40;;;;;12.39;39.49;97146.81;6142985;28;98170;-69
2021/12/01 13:07:47;;;;;;;;;7.00;6.00;;;;;12.31;39.87;97150.09;6165092;28;96528;-65
2021/12/01 13:10:52;;;;;;;;;7.00;6.00;;;;;12.42;40.02;97138.16;6153567;28;97504;-65
2021/12/01 13:13:57;;;;;;;;;6.00;6.00;;;;;12.51;40.26;97150.81;6145354;28;97415;-66
2021/12/01 13:17:01;;;;;;;;;4.40;4.00;;;;;12.44;40.12;97146.81;6164411;28;97506;-67
2021/12/01 13:20:06;;;;;;;;;5.00;4.00;;;;;12.49;40.42;97135.97;6162596;28;97422;-66
2021/12/01 13:23:15;;;;;;;;;5.80;5.80;;;;;12.58;40.44;97131.63;6142544;28;97879;-66
2021/12/01 13:26:22;;;;;;;;;6.80;4.20;;;;;12.52;40.99;97119.19;6156535;28;97263;-66
2021/12/01 13:29:26;;;;;;;;;5.00;5.00;;;;;12.59;41.01;97115.13;6161865;28;97497;-67
2021/12/01 13:32:38;;;;;;;;;3.00;3.00;;;;;12.56;41.73;97115.66;6156206;28;98155;-66
2021/12/01 13:35:42;;;;;;;;;4.00;4.00;;;;;12.61;42.17;97116.75;6152352;28;98512;-66
2021/12/01 13:38:46;;;;;;;;;4.00;4.00;;;;;12.58;42.49;97108.09;6166345;28;97560;-66
2021/12/01 13:41:54;;;;;;;;;3.50;3.25;;;;;12.48;43.08;97091.94;6136796;28;97406;-66
2021/12/01 13:44:57;;;;;;;;;4.60;3.00;;;;;12.59;43.26;97090.00;6135586;28;97908;-66
2021/12/01 13:48:08;;;;;;;;;4.00;3.20;;;;;12.70;43.32;97091.56;6159499;28;96635;-66
2021/12/01 13:51:15;;;;;;;;;4.00;3.00;;;;;12.72;43.59;97086.66;6143842;28;97647;-66
2021/12/01 13:54:23;;;;;;;;;4.00;4.00;;;;;12.46;43.92;97066.28;6161143;28;96702;-67
2021/12/01 13:57:28;;;;;;;;;4.00;3.20;;;;;12.48;44.16;97075.72;6166234;28;96505;-66
2021/12/01 14:00:34;;;;;;;;;6.25;6.00;;;;;12.57;44.21;97070.53;6165443;28;96923;-68
2021/12/01 14:03:40;;;;;;;;;4.00;4.00;;;;;12.56;44.23;97058.09;6150547;28;97742;-68
2021/12/01 14:06:44;;;;;;;;;4.00;4.00;;;;;12.63;44.47;97055.91;6163647;28;98184;-67
2021/12/01 14:09:58;;;;;;;;;4.80;4.00;;;;;12.56;44.10;97033.78;6153869;28;97429;-67
2021/12/01 14:13:04;;;;;;;;;4.00;4.00;;;;;12.71;44.40;97040.97;6153541;28;97473;-66
2021/12/01 14:16:08;;;;;;;;;5.80;5.00;;;;;12.63;44.53;97045.09;6148734;28;97623;-66
2021/12/01 14:19:11;;;;;;;;;5.00;5.00;;;;;12.57;44.63;97033.50;6148287;28;96973;-66
2021/12/01 14:22:17;;;;;;;;;5.00;5.00;;;;;12.54;45.04;97015.16;6159507;28;97316;-66
2021/12/01 14:25:21;;;;;;;;;4.75;4.00;;;;;12.58;45.29;97018.91;6147203;28;98450;-65
2021/12/01 14:28:26;;;;;;;;;5.00;4.00;;;;;12.56;45.62;97012.13;6173681;28;97523;-67
2021/12/01 14:31:29;;;;;;;;;4.80;4.00;;;;;12.46;45.94;97009.53;6148327;28;97866;-65
2021/12/01 14:34:36;;;;;;;;;5.00;4.50;;;;;12.39;46.27;96998.22;6160388;28;97461;-66
2021/12/01 14:37:40;;;;;;;;;4.80;4.00;;;;;12.32;46.44;96995.81;6152891;28;97184;-67
2021/12/01 14:40:47;;;;;;;;;11.40;10.40;;;;;12.21;46.46;96985.34;6158545;28;97476;-67
2021/12/01 14:43:59;;;;;;;;;11.00;10.75;;;;;11.97;46.97;96979.78;6140211;28;97002;-67